Portada
METAR-TAF:

METAR-TAF

Aeropuertos :

Madrid, España

Aeropuerto de Madrid-Barajas

latitud: 40-27N, longitud: 003-33W, altitud: 609 m

Observación

El informe se hizo hace 22 minutos, a las 00:00 UTC
Viento 3 kt del norte-noroeste
Temperatura 4°C
Humedad 75%
Presión 1023 hPa
Visibilidad 10 km o más
sin nubes por debajo de 1500 m y sin presencia de cumulonimbus.

METAR: LEMD 200000Z 34003KT CAVOK 04/00 Q1023 NOSIG

Hora: 01:22 (00:22 UTC)

Pronóstico

El informe se hizo hace 1 hora y 22 minutos, a las 23:00 UTC
Pronóstico válido del 20 a las 00 UTC al 21 a las 06 UTC
Viento 5 kt con dirección variable
Visibilidad 10 km o más
sin nubes por debajo de 1500 m y sin presencia de cumulonimbus.

TAF: LEMD 192300Z 2000/2106 VRB05KT CAVOK TX19/2015Z TN00/2007Z

Observaciones y pronósticos meteorológicos de más de 4000 aeropuertos (mensajes METAR y TAF).

Los puntos amarillos y rojos representan las estaciones disponibles.

Ponga el ratón en el punto deseado para ver el nombre de la estación.

Haga clic para ver las observaciones y los pronósticos meteorológicos.

Para cambiar el mapa : haga clic en los botones verdes con una cruz de color negro para hacer un zoom, en el botón verde con un guión para alejar o en las flechas verdes para mapas adyacentes.


METAR-TAF: